sensor_id;sensor_type;location;lat;lon;timestamp;P1;durP1;ratioP1;P2;durP2;ratioP2
20669;SDS011;10494;50.868;4.180;2023-10-09T00:00:32;12.55;;;7.65;;
20669;SDS011;10494;50.868;4.180;2023-10-09T00:03:05;17.35;;;7.28;;
20669;SDS011;10494;50.868;4.180;2023-10-09T00:05:31;13.85;;;7.60;;
20669;SDS011;10494;50.868;4.180;2023-10-09T00:08:10;10.73;;;6.75;;
20669;SDS011;10494;50.868;4.180;2023-10-09T00:10:44;14.18;;;7.55;;
20669;SDS011;10494;50.868;4.180;2023-10-09T00:13:30;12.70;;;7.20;;
20669;SDS011;10494;50.868;4.180;2023-10-09T00:15:57;15.48;;;7.32;;
20669;SDS011;10494;50.868;4.180;2023-10-09T00:18:33;13.35;;;7.80;;
20669;SDS011;10494;50.868;4.180;2023-10-09T00:21:00;13.25;;;7.53;;
20669;SDS011;10494;50.868;4.180;2023-10-09T00:23:34;14.80;;;8.00;;
20669;SDS011;10494;50.868;4.180;2023-10-09T00:25:59;12.65;;;7.25;;
20669;SDS011;10494;50.868;4.180;2023-10-09T00:28:44;12.40;;;7.05;;
20669;SDS011;10494;50.868;4.180;2023-10-09T00:31:12;14.82;;;8.00;;
20669;SDS011;10494;50.868;4.180;2023-10-09T00:33:44;14.82;;;7.25;;
20669;SDS011;10494;50.868;4.180;2023-10-09T00:36:10;13.23;;;6.90;;
20669;SDS011;10494;50.868;4.180;2023-10-09T00:38:38;13.88;;;6.82;;
20669;SDS011;10494;50.868;4.180;2023-10-09T00:41:11;14.52;;;7.55;;
20669;SDS011;10494;50.868;4.180;2023-10-09T00:43:44;13.30;;;6.63;;
20669;SDS011;10494;50.868;4.180;2023-10-09T00:46:10;16.95;;;7.35;;
20669;SDS011;10494;50.868;4.180;2023-10-09T00:48:45;14.27;;;6.80;;
20669;SDS011;10494;50.868;4.180;2023-10-09T00:51:18;12.82;;;6.95;;
20669;SDS011;10494;50.868;4.180;2023-10-09T00:53:45;15.45;;;6.68;;
20669;SDS011;10494;50.868;4.180;2023-10-09T00:56:17;11.57;;;7.57;;
20669;SDS011;10494;50.868;4.180;2023-10-09T00:58:45;16.63;;;6.88;;
20669;SDS011;10494;50.868;4.180;2023-10-09T01:01:13;12.32;;;6.88;;
20669;SDS011;10494;50.868;4.180;2023-10-09T01:03:41;19.02;;;7.15;;
20669;SDS011;10494;50.868;4.180;2023-10-09T01:06:07;10.23;;;6.90;;
20669;SDS011;10494;50.868;4.180;2023-10-09T01:08:35;15.20;;;6.63;;
20669;SDS011;10494;50.868;4.180;2023-10-09T01:11:12;13.50;;;7.38;;
20669;SDS011;10494;50.868;4.180;2023-10-09T01:13:49;13.93;;;7.10;;
20669;SDS011;10494;50.868;4.180;2023-10-09T01:16:15;15.65;;;7.97;;
20669;SDS011;10494;50.868;4.180;2023-10-09T01:18:42;14.32;;;7.22;;
20669;SDS011;10494;50.868;4.180;2023-10-09T01:21:14;13.38;;;7.35;;
20669;SDS011;10494;50.868;4.180;2023-10-09T01:23:44;16.00;;;6.78;;
20669;SDS011;10494;50.868;4.180;2023-10-09T01:26:38;16.45;;;7.13;;
20669;SDS011;10494;50.868;4.180;2023-10-09T01:29:09;19.83;;;8.40;;
20669;SDS011;10494;50.868;4.180;2023-10-09T01:31:44;18.40;;;8.90;;
20669;SDS011;10494;50.868;4.180;2023-10-09T01:34:29;15.15;;;8.60;;
20669;SDS011;10494;50.868;4.180;2023-10-09T01:37:08;15.93;;;8.32;;
20669;SDS011;10494;50.868;4.180;2023-10-09T01:39:40;17.15;;;8.57;;
20669;SDS011;10494;50.868;4.180;2023-10-09T01:42:07;18.63;;;9.35;;
20669;SDS011;10494;50.868;4.180;2023-10-09T01:44:34;16.27;;;9.10;;
20669;SDS011;10494;50.868;4.180;2023-10-09T01:47:03;18.83;;;10.23;;
20669;SDS011;10494;50.868;4.180;2023-10-09T01:49:36;19.75;;;10.43;;
20669;SDS011;10494;50.868;4.180;2023-10-09T01:52:08;21.55;;;10.18;;
20669;SDS011;10494;50.868;4.180;2023-10-09T01:54:38;20.17;;;9.27;;
20669;SDS011;10494;50.868;4.180;2023-10-09T01:57:12;17.15;;;9.60;;
20669;SDS011;10494;50.868;4.180;2023-10-09T01:59:38;18.88;;;9.48;;
20669;SDS011;10494;50.868;4.180;2023-10-09T02:02:08;17.67;;;9.27;;
20669;SDS011;10494;50.868;4.180;2023-10-09T02:05:02;14.98;;;9.10;;
20669;SDS011;10494;50.868;4.180;2023-10-09T02:07:40;19.60;;;9.52;;
20669;SDS011;10494;50.868;4.180;2023-10-09T02:10:12;15.65;;;9.25;;
20669;SDS011;10494;50.868;4.180;2023-10-09T02:12:56;17.13;;;9.50;;
20669;SDS011;10494;50.868;4.180;2023-10-09T02:15:31;16.90;;;9.40;;
20669;SDS011;10494;50.868;4.180;2023-10-09T02:18:10;21.30;;;9.00;;
20669;SDS011;10494;50.868;4.180;2023-10-09T02:21:05;16.88;;;8.77;;
20669;SDS011;10494;50.868;4.180;2023-10-09T02:23:32;18.25;;;9.38;;
20669;SDS011;10494;50.868;4.180;2023-10-09T02:26:25;19.25;;;9.88;;
20669;SDS011;10494;50.868;4.180;2023-10-09T02:28:52;13.90;;;8.82;;
20669;SDS011;10494;50.868;4.180;2023-10-09T02:31:23;15.52;;;9.02;;
20669;SDS011;10494;50.868;4.180;2023-10-09T02:34:00;16.45;;;9.05;;
20669;SDS011;10494;50.868;4.180;2023-10-09T02:36:32;13.23;;;8.48;;
20669;SDS011;10494;50.868;4.180;2023-10-09T02:39:03;15.40;;;8.52;;
20669;SDS011;10494;50.868;4.180;2023-10-09T02:41:30;18.08;;;9.40;;
20669;SDS011;10494;50.868;4.180;2023-10-09T02:43:59;17.10;;;9.07;;
20669;SDS011;10494;50.868;4.180;2023-10-09T02:46:35;17.05;;;9.77;;
20669;SDS011;10494;50.868;4.180;2023-10-09T02:49:01;21.23;;;9.27;;
20669;SDS011;10494;50.868;4.180;2023-10-09T02:51:34;16.38;;;8.20;;
20669;SDS011;10494;50.868;4.180;2023-10-09T02:54:06;15.88;;;9.10;;
20669;SDS011;10494;50.868;4.180;2023-10-09T02:56:42;17.52;;;9.25;;
20669;SDS011;10494;50.868;4.180;2023-10-09T02:59:09;16.58;;;8.88;;
20669;SDS011;10494;50.868;4.180;2023-10-09T03:01:35;17.48;;;9.00;;
20669;SDS011;10494;50.868;4.180;2023-10-09T03:04:04;16.92;;;9.20;;
20669;SDS011;10494;50.868;4.180;2023-10-09T03:06:31;19.17;;;9.73;;
20669;SDS011;10494;50.868;4.180;2023-10-09T03:08:59;19.02;;;9.38;;
20669;SDS011;10494;50.868;4.180;2023-10-09T03:11:41;21.33;;;9.07;;
20669;SDS011;10494;50.868;4.180;2023-10-09T03:14:08;18.48;;;9.57;;
20669;SDS011;10494;50.868;4.180;2023-10-09T03:16:35;16.55;;;9.20;;
20669;SDS011;10494;50.868;4.180;2023-10-09T03:19:01;16.17;;;9.13;;
20669;SDS011;10494;50.868;4.180;2023-10-09T03:21:28;18.42;;;9.32;;
20669;SDS011;10494;50.868;4.180;2023-10-09T03:23:55;18.45;;;9.23;;
20669;SDS011;10494;50.868;4.180;2023-10-09T03:26:21;18.60;;;9.55;;
20669;SDS011;10494;50.868;4.180;2023-10-09T03:28:51;16.83;;;9.57;;
20669;SDS011;10494;50.868;4.180;2023-10-09T03:31:19;17.08;;;9.93;;
20669;SDS011;10494;50.868;4.180;2023-10-09T03:33:47;20.45;;;9.85;;
20669;SDS011;10494;50.868;4.180;2023-10-09T03:36:13;21.30;;;9.82;;
20669;SDS011;10494;50.868;4.180;2023-10-09T03:38:41;17.77;;;9.55;;
20669;SDS011;10494;50.868;4.180;2023-10-09T03:41:07;17.33;;;9.88;;
20669;SDS011;10494;50.868;4.180;2023-10-09T03:43:37;15.85;;;9.88;;
20669;SDS011;10494;50.868;4.180;2023-10-09T03:46:08;15.38;;;9.75;;
20669;SDS011;10494;50.868;4.180;2023-10-09T03:48:59;15.20;;;9.15;;
20669;SDS011;10494;50.868;4.180;2023-10-09T03:51:28;18.08;;;10.05;;
20669;SDS011;10494;50.868;4.180;2023-10-09T03:53:54;18.60;;;10.63;;
20669;SDS011;10494;50.868;4.180;2023-10-09T03:56:20;24.48;;;10.38;;
20669;SDS011;10494;50.868;4.180;2023-10-09T03:58:49;22.30;;;10.13;;
20669;SDS011;10494;50.868;4.180;2023-10-09T04:01:20;22.17;;;10.63;;
20669;SDS011;10494;50.868;4.180;2023-10-09T04:04:03;18.17;;;11.05;;
20669;SDS011;10494;50.868;4.180;2023-10-09T04:06:32;21.38;;;11.35;;
20669;SDS011;10494;50.868;4.180;2023-10-09T04:11:25;17.45;;;10.10;;
20669;SDS011;10494;50.868;4.180;2023-10-09T04:13:51;16.10;;;10.05;;
20669;SDS011;10494;50.868;4.180;2023-10-09T04:16:24;20.17;;;10.75;;
20669;SDS011;10494;50.868;4.180;2023-10-09T04:19:00;19.83;;;11.15;;
20669;SDS011;10494;50.868;4.180;2023-10-09T04:21:30;20.33;;;10.55;;
20669;SDS011;10494;50.868;4.180;2023-10-09T04:24:00;21.23;;;11.98;;
20669;SDS011;10494;50.868;4.180;2023-10-09T04:26:41;24.67;;;11.63;;
20669;SDS011;10494;50.868;4.180;2023-10-09T04:29:12;21.08;;;11.32;;
20669;SDS011;10494;50.868;4.180;2023-10-09T04:31:57;21.58;;;11.93;;
20669;SDS011;10494;50.868;4.180;2023-10-09T04:34:26;19.65;;;11.80;;
20669;SDS011;10494;50.868;4.180;2023-10-09T04:37:13;19.95;;;10.63;;
20669;SDS011;10494;50.868;4.180;2023-10-09T04:39:39;20.55;;;11.75;;
20669;SDS011;10494;50.868;4.180;2023-10-09T04:42:25;21.33;;;11.10;;
20669;SDS011;10494;50.868;4.180;2023-10-09T04:45:01;18.95;;;11.52;;
20669;SDS011;10494;50.868;4.180;2023-10-09T04:47:28;23.17;;;12.50;;
20669;SDS011;10494;50.868;4.180;2023-10-09T04:50:23;20.65;;;12.20;;
20669;SDS011;10494;50.868;4.180;2023-10-09T04:52:55;23.13;;;11.55;;
20669;SDS011;10494;50.868;4.180;2023-10-09T04:55:29;18.58;;;11.57;;
20669;SDS011;10494;50.868;4.180;2023-10-09T04:58:03;21.98;;;12.13;;
20669;SDS011;10494;50.868;4.180;2023-10-09T05:00:39;22.10;;;12.43;;
20669;SDS011;10494;50.868;4.180;2023-10-09T05:03:07;20.98;;;11.77;;
20669;SDS011;10494;50.868;4.180;2023-10-09T05:05:37;19.45;;;12.23;;
20669;SDS011;10494;50.868;4.180;2023-10-09T05:08:10;22.73;;;13.00;;
20669;SDS011;10494;50.868;4.180;2023-10-09T05:13:32;19.65;;;11.68;;
20669;SDS011;10494;50.868;4.180;2023-10-09T05:18:43;19.95;;;12.55;;
20669;SDS011;10494;50.868;4.180;2023-10-09T05:21:37;22.05;;;11.57;;
20669;SDS011;10494;50.868;4.180;2023-10-09T05:24:07;21.95;;;12.10;;
20669;SDS011;10494;50.868;4.180;2023-10-09T05:29:20;22.98;;;12.73;;
20669;SDS011;10494;50.868;4.180;2023-10-09T05:32:02;20.02;;;12.45;;
20669;SDS011;10494;50.868;4.180;2023-10-09T05:34:32;18.90;;;11.30;;
20669;SDS011;10494;50.868;4.180;2023-10-09T05:37:05;21.23;;;12.02;;
20669;SDS011;10494;50.868;4.180;2023-10-09T05:39:48;26.20;;;13.05;;
20669;SDS011;10494;50.868;4.180;2023-10-09T05:42:29;27.95;;;13.38;;
20669;SDS011;10494;50.868;4.180;2023-10-09T05:45:02;21.70;;;12.63;;
20669;SDS011;10494;50.868;4.180;2023-10-09T05:47:48;22.00;;;12.82;;
20669;SDS011;10494;50.868;4.180;2023-10-09T05:50:26;21.88;;;12.77;;
20669;SDS011;10494;50.868;4.180;2023-10-09T05:52:57;19.55;;;12.00;;
20669;SDS011;10494;50.868;4.180;2023-10-09T05:55:34;20.00;;;12.27;;
20669;SDS011;10494;50.868;4.180;2023-10-09T05:58:19;19.40;;;12.85;;
20669;SDS011;10494;50.868;4.180;2023-10-09T06:01:03;21.05;;;12.10;;
20669;SDS011;10494;50.868;4.180;2023-10-09T06:03:47;24.55;;;12.82;;
20669;SDS011;10494;50.868;4.180;2023-10-09T06:06:13;21.73;;;12.63;;
20669;SDS011;10494;50.868;4.180;2023-10-09T06:09:02;23.90;;;12.60;;
20669;SDS011;10494;50.868;4.180;2023-10-09T06:11:46;26.75;;;12.85;;
20669;SDS011;10494;50.868;4.180;2023-10-09T06:14:18;26.05;;;13.20;;
20669;SDS011;10494;50.868;4.180;2023-10-09T06:16:56;24.10;;;12.63;;
20669;SDS011;10494;50.868;4.180;2023-10-09T06:19:42;23.83;;;11.80;;
20669;SDS011;10494;50.868;4.180;2023-10-09T06:22:08;20.30;;;12.48;;
20669;SDS011;10494;50.868;4.180;2023-10-09T06:24:53;28.05;;;12.75;;
20669;SDS011;10494;50.868;4.180;2023-10-09T06:27:19;21.75;;;12.60;;
20669;SDS011;10494;50.868;4.180;2023-10-09T06:29:54;22.20;;;12.80;;
20669;SDS011;10494;50.868;4.180;2023-10-09T06:32:40;22.45;;;12.52;;
20669;SDS011;10494;50.868;4.180;2023-10-09T06:35:27;23.00;;;13.23;;
20669;SDS011;10494;50.868;4.180;2023-10-09T06:37:56;21.98;;;12.85;;
20669;SDS011;10494;50.868;4.180;2023-10-09T06:40:47;27.17;;;13.85;;
20669;SDS011;10494;50.868;4.180;2023-10-09T06:43:16;23.55;;;13.23;;
20669;SDS011;10494;50.868;4.180;2023-10-09T06:45:45;22.50;;;13.13;;
20669;SDS011;10494;50.868;4.180;2023-10-09T06:48:14;22.42;;;12.88;;
20669;SDS011;10494;50.868;4.180;2023-10-09T06:53:52;20.88;;;12.88;;
20669;SDS011;10494;50.868;4.180;2023-10-09T06:56:30;26.90;;;13.20;;
20669;SDS011;10494;50.868;4.180;2023-10-09T06:58:56;26.55;;;13.23;;
20669;SDS011;10494;50.868;4.180;2023-10-09T07:01:46;28.25;;;14.43;;
20669;SDS011;10494;50.868;4.180;2023-10-09T07:04:16;22.00;;;12.98;;
20669;SDS011;10494;50.868;4.180;2023-10-09T07:06:50;24.95;;;12.57;;
20669;SDS011;10494;50.868;4.180;2023-10-09T07:09:16;22.40;;;13.98;;
20669;SDS011;10494;50.868;4.180;2023-10-09T07:11:49;24.58;;;12.73;;
20669;SDS011;10494;50.868;4.180;2023-10-09T07:14:20;25.50;;;13.60;;
20669;SDS011;10494;50.868;4.180;2023-10-09T07:16:59;20.92;;;11.75;;
20669;SDS011;10494;50.868;4.180;2023-10-09T07:19:26;22.52;;;12.30;;
20669;SDS011;10494;50.868;4.180;2023-10-09T07:22:04;20.13;;;13.02;;
20669;SDS011;10494;50.868;4.180;2023-10-09T07:24:41;22.20;;;11.98;;
20669;SDS011;10494;50.868;4.180;2023-10-09T07:27:14;26.30;;;12.13;;
20669;SDS011;10494;50.868;4.180;2023-10-09T07:30:03;22.13;;;13.13;;
20669;SDS011;10494;50.868;4.180;2023-10-09T07:32:49;22.25;;;12.98;;
20669;SDS011;10494;50.868;4.180;2023-10-09T07:35:17;21.40;;;12.20;;
20669;SDS011;10494;50.868;4.180;2023-10-09T07:38:03;21.35;;;13.15;;
20669;SDS011;10494;50.868;4.180;2023-10-09T07:40:28;26.27;;;13.07;;
20669;SDS011;10494;50.868;4.180;2023-10-09T07:42:56;25.63;;;12.95;;
20669;SDS011;10494;50.868;4.180;2023-10-09T07:45:30;21.38;;;11.30;;
20669;SDS011;10494;50.868;4.180;2023-10-09T07:47:55;25.70;;;13.02;;
20669;SDS011;10494;50.868;4.180;2023-10-09T07:50:37;20.98;;;12.00;;
20669;SDS011;10494;50.868;4.180;2023-10-09T07:53:06;23.08;;;11.57;;
20669;SDS011;10494;50.868;4.180;2023-10-09T07:55:51;19.60;;;11.05;;
20669;SDS011;10494;50.868;4.180;2023-10-09T07:58:27;22.70;;;10.73;;
20669;SDS011;10494;50.868;4.180;2023-10-09T08:00:57;19.20;;;11.05;;
20669;SDS011;10494;50.868;4.180;2023-10-09T08:03:23;16.25;;;10.13;;
20669;SDS011;10494;50.868;4.180;2023-10-09T08:05:51;19.20;;;10.75;;
20669;SDS011;10494;50.868;4.180;2023-10-09T08:08:19;20.23;;;10.90;;
20669;SDS011;10494;50.868;4.180;2023-10-09T08:10:54;18.42;;;11.02;;
20669;SDS011;10494;50.868;4.180;2023-10-09T08:13:38;23.73;;;10.93;;
20669;SDS011;10494;50.868;4.180;2023-10-09T08:16:26;19.23;;;11.57;;
20669;SDS011;10494;50.868;4.180;2023-10-09T08:19:01;18.90;;;11.18;;
20669;SDS011;10494;50.868;4.180;2023-10-09T08:21:45;25.63;;;12.50;;
20669;SDS011;10494;50.868;4.180;2023-10-09T08:24:32;22.70;;;11.88;;
20669;SDS011;10494;50.868;4.180;2023-10-09T08:27:06;21.02;;;11.85;;
20669;SDS011;10494;50.868;4.180;2023-10-09T08:29:50;21.88;;;12.80;;
20669;SDS011;10494;50.868;4.180;2023-10-09T08:32:36;28.20;;;13.27;;
20669;SDS011;10494;50.868;4.180;2023-10-09T08:35:07;24.65;;;12.75;;
20669;SDS011;10494;50.868;4.180;2023-10-09T08:37:55;22.48;;;12.95;;
20669;SDS011;10494;50.868;4.180;2023-10-09T08:40:34;17.45;;;11.00;;
20669;SDS011;10494;50.868;4.180;2023-10-09T08:43:18;18.95;;;12.15;;
20669;SDS011;10494;50.868;4.180;2023-10-09T08:45:45;25.02;;;13.15;;
20669;SDS011;10494;50.868;4.180;2023-10-09T08:48:11;18.30;;;12.05;;
20669;SDS011;10494;50.868;4.180;2023-10-09T08:50:41;31.25;;;14.23;;
20669;SDS011;10494;50.868;4.180;2023-10-09T08:53:13;22.02;;;13.57;;
20669;SDS011;10494;50.868;4.180;2023-10-09T08:55:41;23.27;;;12.60;;
20669;SDS011;10494;50.868;4.180;2023-10-09T08:58:07;29.83;;;16.27;;
20669;SDS011;10494;50.868;4.180;2023-10-09T09:00:57;22.52;;;12.85;;
20669;SDS011;10494;50.868;4.180;2023-10-09T09:03:25;19.02;;;12.90;;
20669;SDS011;10494;50.868;4.180;2023-10-09T09:06:01;23.33;;;13.48;;
20669;SDS011;10494;50.868;4.180;2023-10-09T09:08:27;31.23;;;14.10;;
20669;SDS011;10494;50.868;4.180;2023-10-09T09:10:58;24.42;;;12.90;;
20669;SDS011;10494;50.868;4.180;2023-10-09T09:13:47;22.60;;;12.73;;
20669;SDS011;10494;50.868;4.180;2023-10-09T09:16:30;26.42;;;14.23;;
20669;SDS011;10494;50.868;4.180;2023-10-09T09:21:39;21.02;;;12.82;;
20669;SDS011;10494;50.868;4.180;2023-10-09T09:24:08;25.08;;;13.88;;
20669;SDS011;10494;50.868;4.180;2023-10-09T09:26:56;26.00;;;13.93;;
20669;SDS011;10494;50.868;4.180;2023-10-09T09:29:38;24.10;;;12.75;;
20669;SDS011;10494;50.868;4.180;2023-10-09T09:32:06;24.33;;;13.13;;
20669;SDS011;10494;50.868;4.180;2023-10-09T09:34:48;20.67;;;12.85;;
20669;SDS011;10494;50.868;4.180;2023-10-09T09:37:21;21.55;;;12.70;;
20669;SDS011;10494;50.868;4.180;2023-10-09T09:40:02;25.23;;;13.00;;
20669;SDS011;10494;50.868;4.180;2023-10-09T09:42:49;29.00;;;13.07;;
20669;SDS011;10494;50.868;4.180;2023-10-09T09:45:16;24.88;;;13.27;;
20669;SDS011;10494;50.868;4.180;2023-10-09T09:47:48;21.27;;;11.98;;
20669;SDS011;10494;50.868;4.180;2023-10-09T09:50:19;21.73;;;12.00;;
20669;SDS011;10494;50.868;4.180;2023-10-09T09:52:51;26.63;;;13.32;;
20669;SDS011;10494;50.868;4.180;2023-10-09T09:55:21;20.55;;;12.48;;
20669;SDS011;10494;50.868;4.180;2023-10-09T09:57:58;23.25;;;12.60;;
20669;SDS011;10494;50.868;4.180;2023-10-09T10:00:31;26.52;;;13.70;;
20669;SDS011;10494;50.868;4.180;2023-10-09T10:03:14;23.77;;;12.13;;
20669;SDS011;10494;50.868;4.180;2023-10-09T10:05:58;24.90;;;13.15;;
20669;SDS011;10494;50.868;4.180;2023-10-09T10:08:30;23.55;;;12.43;;
20669;SDS011;10494;50.868;4.180;2023-10-09T10:10:58;21.58;;;13.05;;
20669;SDS011;10494;50.868;4.180;2023-10-09T10:16:08;26.30;;;13.60;;
20669;SDS011;10494;50.868;4.180;2023-10-09T10:21:19;24.20;;;12.75;;
20669;SDS011;10494;50.868;4.180;2023-10-09T10:23:56;23.63;;;12.95;;
20669;SDS011;10494;50.868;4.180;2023-10-09T10:26:35;22.65;;;12.55;;
20669;SDS011;10494;50.868;4.180;2023-10-09T10:29:17;20.83;;;12.25;;
20669;SDS011;10494;50.868;4.180;2023-10-09T10:31:57;20.70;;;12.43;;
20669;SDS011;10494;50.868;4.180;2023-10-09T10:37:20;19.92;;;12.25;;
20669;SDS011;10494;50.868;4.180;2023-10-09T10:39:53;23.83;;;11.57;;
20669;SDS011;10494;50.868;4.180;2023-10-09T10:42:24;22.08;;;12.05;;
20669;SDS011;10494;50.868;4.180;2023-10-09T10:45:00;19.30;;;11.13;;
20669;SDS011;10494;50.868;4.180;2023-10-09T10:47:40;26.42;;;11.68;;
20669;SDS011;10494;50.868;4.180;2023-10-09T10:50:07;27.00;;;12.30;;
20669;SDS011;10494;50.868;4.180;2023-10-09T10:52:53;22.13;;;11.88;;
20669;SDS011;10494;50.868;4.180;2023-10-09T10:55:38;20.17;;;12.13;;
20669;SDS011;10494;50.868;4.180;2023-10-09T10:58:17;20.85;;;11.95;;
20669;SDS011;10494;50.868;4.180;2023-10-09T11:00:53;23.58;;;11.23;;
20669;SDS011;10494;50.868;4.180;2023-10-09T11:03:22;21.25;;;13.35;;
20669;SDS011;10494;50.868;4.180;2023-10-09T11:05:54;18.95;;;11.25;;
20669;SDS011;10494;50.868;4.180;2023-10-09T11:08:24;27.15;;;12.50;;
20669;SDS011;10494;50.868;4.180;2023-10-09T11:11:11;22.30;;;11.18;;
20669;SDS011;10494;50.868;4.180;2023-10-09T11:13:40;21.33;;;12.15;;
20669;SDS011;10494;50.868;4.180;2023-10-09T11:16:22;23.27;;;11.68;;
20669;SDS011;10494;50.868;4.180;2023-10-09T11:19:07;22.88;;;11.98;;
20669;SDS011;10494;50.868;4.180;2023-10-09T11:21:52;23.02;;;12.18;;
20669;SDS011;10494;50.868;4.180;2023-10-09T11:24:48;22.70;;;12.95;;
20669;SDS011;10494;50.868;4.180;2023-10-09T11:27:34;24.02;;;11.20;;
20669;SDS011;10494;50.868;4.180;2023-10-09T11:30:04;25.20;;;12.05;;
20669;SDS011;10494;50.868;4.180;2023-10-09T11:32:46;21.35;;;11.27;;
20669;SDS011;10494;50.868;4.180;2023-10-09T11:35:15;28.15;;;12.50;;
20669;SDS011;10494;50.868;4.180;2023-10-09T11:37:56;22.85;;;11.88;;
20669;SDS011;10494;50.868;4.180;2023-10-09T11:40:29;23.70;;;11.05;;
20669;SDS011;10494;50.868;4.180;2023-10-09T11:43:16;24.98;;;11.50;;
20669;SDS011;10494;50.868;4.180;2023-10-09T11:45:42;24.40;;;11.27;;
20669;SDS011;10494;50.868;4.180;2023-10-09T11:48:19;22.83;;;11.82;;
20669;SDS011;10494;50.868;4.180;2023-10-09T11:51:11;18.88;;;9.80;;
20669;SDS011;10494;50.868;4.180;2023-10-09T11:53:41;20.90;;;10.32;;
20669;SDS011;10494;50.868;4.180;2023-10-09T11:56:14;18.92;;;11.50;;
20669;SDS011;10494;50.868;4.180;2023-10-09T11:58:46;21.83;;;11.18;;
20669;SDS011;10494;50.868;4.180;2023-10-09T12:01:15;18.45;;;10.13;;
20669;SDS011;10494;50.868;4.180;2023-10-09T12:03:48;18.02;;;10.55;;
20669;SDS011;10494;50.868;4.180;2023-10-09T12:06:15;17.92;;;10.07;;
20669;SDS011;10494;50.868;4.180;2023-10-09T12:08:44;17.17;;;10.02;;
20669;SDS011;10494;50.868;4.180;2023-10-09T12:11:13;17.80;;;10.00;;
20669;SDS011;10494;50.868;4.180;2023-10-09T12:13:53;20.88;;;10.68;;
20669;SDS011;10494;50.868;4.180;2023-10-09T12:16:23;19.92;;;11.00;;
20669;SDS011;10494;50.868;4.180;2023-10-09T12:18:56;21.45;;;9.93;;
20669;SDS011;10494;50.868;4.180;2023-10-09T12:21:22;23.63;;;11.43;;
20669;SDS011;10494;50.868;4.180;2023-10-09T12:23:48;19.98;;;12.07;;
20669;SDS011;10494;50.868;4.180;2023-10-09T12:26:14;21.92;;;11.98;;
20669;SDS011;10494;50.868;4.180;2023-10-09T12:28:41;16.13;;;10.65;;
20669;SDS011;10494;50.868;4.180;2023-10-09T12:31:10;23.13;;;10.95;;
20669;SDS011;10494;50.868;4.180;2023-10-09T12:33:46;21.17;;;11.57;;
20669;SDS011;10494;50.868;4.180;2023-10-09T12:36:12;16.15;;;9.50;;
20669;SDS011;10494;50.868;4.180;2023-10-09T12:38:44;21.00;;;11.50;;
20669;SDS011;10494;50.868;4.180;2023-10-09T12:41:15;20.48;;;11.32;;
20669;SDS011;10494;50.868;4.180;2023-10-09T12:43:56;17.65;;;10.35;;
20669;SDS011;10494;50.868;4.180;2023-10-09T12:46:25;17.70;;;10.63;;
20669;SDS011;10494;50.868;4.180;2023-10-09T12:48:54;19.83;;;11.40;;
20669;SDS011;10494;50.868;4.180;2023-10-09T12:51:20;19.88;;;10.35;;
20669;SDS011;10494;50.868;4.180;2023-10-09T12:53:50;20.40;;;10.15;;
20669;SDS011;10494;50.868;4.180;2023-10-09T12:56:23;17.02;;;11.15;;
20669;SDS011;10494;50.868;4.180;2023-10-09T12:58:58;19.10;;;10.32;;
20669;SDS011;10494;50.868;4.180;2023-10-09T13:01:26;21.25;;;10.88;;
20669;SDS011;10494;50.868;4.180;2023-10-09T13:03:57;15.40;;;9.25;;
20669;SDS011;10494;50.868;4.180;2023-10-09T13:06:26;17.70;;;9.55;;
20669;SDS011;10494;50.868;4.180;2023-10-09T13:08:52;20.23;;;9.45;;
20669;SDS011;10494;50.868;4.180;2023-10-09T13:11:21;27.10;;;10.65;;
20669;SDS011;10494;50.868;4.180;2023-10-09T13:13:46;19.92;;;10.98;;
20669;SDS011;10494;50.868;4.180;2023-10-09T13:16:21;18.20;;;10.13;;
20669;SDS011;10494;50.868;4.180;2023-10-09T13:21:27;19.35;;;10.32;;
20669;SDS011;10494;50.868;4.180;2023-10-09T13:24:04;21.70;;;11.45;;
20669;SDS011;10494;50.868;4.180;2023-10-09T13:26:30;15.63;;;10.10;;
20669;SDS011;10494;50.868;4.180;2023-10-09T13:28:58;19.63;;;9.93;;
20669;SDS011;10494;50.868;4.180;2023-10-09T13:31:25;18.80;;;10.23;;
20669;SDS011;10494;50.868;4.180;2023-10-09T13:33:55;14.85;;;9.82;;
20669;SDS011;10494;50.868;4.180;2023-10-09T13:36:27;16.35;;;9.38;;
20669;SDS011;10494;50.868;4.180;2023-10-09T13:39:03;19.38;;;10.43;;
20669;SDS011;10494;50.868;4.180;2023-10-09T13:41:45;20.10;;;11.45;;
20669;SDS011;10494;50.868;4.180;2023-10-09T13:44:12;19.65;;;10.23;;
20669;SDS011;10494;50.868;4.180;2023-10-09T13:46:38;18.42;;;10.70;;
20669;SDS011;10494;50.868;4.180;2023-10-09T13:49:09;24.52;;;11.48;;
20669;SDS011;10494;50.868;4.180;2023-10-09T13:51:42;17.33;;;9.07;;
20669;SDS011;10494;50.868;4.180;2023-10-09T13:54:14;24.73;;;11.05;;
20669;SDS011;10494;50.868;4.180;2023-10-09T13:57:00;21.30;;;11.70;;
20669;SDS011;10494;50.868;4.180;2023-10-09T13:59:29;22.83;;;12.07;;
20669;SDS011;10494;50.868;4.180;2023-10-09T14:01:55;17.75;;;11.43;;
20669;SDS011;10494;50.868;4.180;2023-10-09T14:04:25;22.45;;;12.10;;
20669;SDS011;10494;50.868;4.180;2023-10-09T14:06:54;21.67;;;11.65;;
20669;SDS011;10494;50.868;4.180;2023-10-09T14:09:24;20.85;;;11.52;;
20669;SDS011;10494;50.868;4.180;2023-10-09T14:12:02;18.65;;;11.15;;
20669;SDS011;10494;50.868;4.180;2023-10-09T14:14:36;20.63;;;10.57;;
20669;SDS011;10494;50.868;4.180;2023-10-09T14:17:03;23.50;;;12.73;;
20669;SDS011;10494;50.868;4.180;2023-10-09T14:19:57;29.58;;;11.77;;
20669;SDS011;10494;50.868;4.180;2023-10-09T14:22:41;24.55;;;11.73;;
20669;SDS011;10494;50.868;4.180;2023-10-09T14:25:07;19.73;;;11.18;;
20669;SDS011;10494;50.868;4.180;2023-10-09T14:27:40;17.50;;;10.43;;
20669;SDS011;10494;50.868;4.180;2023-10-09T14:30:06;20.65;;;11.02;;
20669;SDS011;10494;50.868;4.180;2023-10-09T14:32:37;24.50;;;11.68;;
20669;SDS011;10494;50.868;4.180;2023-10-09T14:35:13;22.20;;;10.90;;
20669;SDS011;10494;50.868;4.180;2023-10-09T14:37:39;23.13;;;10.73;;
20669;SDS011;10494;50.868;4.180;2023-10-09T14:40:05;21.40;;;11.38;;
20669;SDS011;10494;50.868;4.180;2023-10-09T14:42:40;25.35;;;10.90;;
20669;SDS011;10494;50.868;4.180;2023-10-09T14:45:09;17.45;;;10.52;;
20669;SDS011;10494;50.868;4.180;2023-10-09T14:47:41;17.23;;;9.60;;
20669;SDS011;10494;50.868;4.180;2023-10-09T14:50:07;21.63;;;11.00;;
20669;SDS011;10494;50.868;4.180;2023-10-09T14:52:34;21.25;;;10.38;;
20669;SDS011;10494;50.868;4.180;2023-10-09T14:55:03;19.55;;;9.30;;
20669;SDS011;10494;50.868;4.180;2023-10-09T14:57:34;16.48;;;9.23;;
20669;SDS011;10494;50.868;4.180;2023-10-09T15:00:00;24.80;;;10.63;;
20669;SDS011;10494;50.868;4.180;2023-10-09T15:02:32;23.70;;;11.23;;
20669;SDS011;10494;50.868;4.180;2023-10-09T15:04:58;19.75;;;10.18;;
20669;SDS011;10494;50.868;4.180;2023-10-09T15:07:24;18.50;;;9.95;;
20669;SDS011;10494;50.868;4.180;2023-10-09T15:09:49;18.23;;;10.48;;
20669;SDS011;10494;50.868;4.180;2023-10-09T15:12:16;21.33;;;10.90;;
20669;SDS011;10494;50.868;4.180;2023-10-09T15:14:41;18.52;;;9.85;;
20669;SDS011;10494;50.868;4.180;2023-10-09T15:17:08;22.13;;;11.32;;
20669;SDS011;10494;50.868;4.180;2023-10-09T15:19:34;24.70;;;11.10;;
20669;SDS011;10494;50.868;4.180;2023-10-09T15:21:59;17.52;;;10.45;;
20669;SDS011;10494;50.868;4.180;2023-10-09T15:24:25;19.98;;;9.77;;
20669;SDS011;10494;50.868;4.180;2023-10-09T15:26:52;20.88;;;8.85;;
20669;SDS011;10494;50.868;4.180;2023-10-09T15:29:22;17.45;;;9.27;;